Main page
METAR-TAF:

METAR-TAF

Airports :

Ghriss, Algeria

Ghriss Airport

latitude: 35-12N, longitude: 000-08E, elevation: 514 m

Current weather observation

The report was made 35 minutes ago, at 04:00 UTC
Wind 8 kt from the West/Northwest
Temperature 12°C
Humidity 100%
Pressure 1016 hPa
Visibility: 6000 m
Scattered clouds at a height of 1300 ft
Broken clouds at a height of 2300 ft

METAR: DAOV 270400Z 30008KT 6000 SCT013 BKN023 12/12 Q1016

Time: 05:35 (04:35 UTC)

Forecast

The report was made 5 hours and 35 minutes ago, at 23:00 UTC
Forecast valid from 27 at 00 UTC to 27 at 09 UTC
Wind 8 kt from the Northwest
Visibility: 5000 m
Broken clouds at a height of 1300 ft
Broken clouds at a height of 2300 ft
Temporary
from 27 at 01 UTC to 27 at 04 UTC
Visibility: 5000 m
rain
Becoming
from 27 at 05 UTC to 27 at 08 UTC
Wind 2 kt from variable directions
Visibility 10 km or more
Few clouds at a height of 2300 ft

TAF: DAOV 262300Z 2700/2709 32008KT 5000 BKN013 BKN023 TEMPO 2701/2704 5000 RA BECMG 2705/2708 VRB02KT 9999 FEW023

Weather observations and forecasts of more than 4000 airports (METAR and TAF reports).

The available stations are represented by yellow and red dots on the map.

Hover mouse over dot to see the name of the station.

Then click to see weather observations and forecasts.

To change the map : click on the green buttons with a black cross to zoom in, on the green button with a dash to zoom out, or on the green arrows for adjacent maps.


METAR-TAF: